createdAt,value
2019-06-07T00:02:18.844Z,15.50
2019-06-07T00:04:48.527Z,15.60
2019-06-07T00:07:21.832Z,15.50
2019-06-07T00:09:49.217Z,15.60
2019-06-07T00:12:21.489Z,15.60
2019-06-07T00:14:50.313Z,15.60
2019-06-07T00:17:20.440Z,15.60
2019-06-07T00:19:50.448Z,15.60
2019-06-07T00:22:32.158Z,15.60
2019-06-07T00:24:51.341Z,15.60
2019-06-07T00:27:22.642Z,15.60
2019-06-07T00:29:52.065Z,15.50
2019-06-07T00:32:22.268Z,15.50
2019-06-07T00:34:52.051Z,15.40
2019-06-07T00:37:25.158Z,15.40
2019-06-07T00:40:12.649Z,15.40
2019-06-07T00:42:24.473Z,15.50
2019-06-07T00:44:54.213Z,15.50
2019-06-07T00:47:25.527Z,15.50
2019-06-07T00:49:54.946Z,15.50
2019-06-07T00:53:11.452Z,15.50
2019-06-07T00:54:55.706Z,15.50
2019-06-07T00:57:25.210Z,15.50
2019-06-07T00:59:54.786Z,15.50
2019-06-07T01:02:28.201Z,15.50
2019-06-07T01:04:55.538Z,15.50
2019-06-07T01:07:24.967Z,15.50
2019-06-07T01:09:54.536Z,15.50
2019-06-07T01:12:26.867Z,15.50
2019-06-07T01:14:55.600Z,15.50
2019-06-07T01:17:41.184Z,15.50
2019-06-07T01:19:58.072Z,15.50
2019-06-07T01:22:29.384Z,15.50
2019-06-07T01:24:58.779Z,15.40
2019-06-07T01:27:28.734Z,15.40
2019-06-07T01:29:58.497Z,15.30
2019-06-07T01:32:31.847Z,15.30
2019-06-07T01:34:59.201Z,15.20
2019-06-07T01:37:30.315Z,15.20
2019-06-07T01:40:00.156Z,15.20
2019-06-07T01:42:31.035Z,15.20
2019-06-07T01:45:00.711Z,15.20
2019-06-07T01:47:32.221Z,15.30
2019-06-07T01:50:01.441Z,15.40
2019-06-07T01:52:31.018Z,15.40
2019-06-07T01:55:00.508Z,15.40
2019-06-07T01:57:44.213Z,15.40
2019-06-07T02:00:01.325Z,15.30
2019-06-07T02:02:31.901Z,15.30
2019-06-07T02:05:01.421Z,15.20
2019-06-07T02:07:33.228Z,15.20
2019-06-07T02:10:02.100Z,14.90
2019-06-07T02:12:40.333Z,14.80
2019-06-07T02:15:03.729Z,14.70
2019-06-07T02:17:33.536Z,14.60
2019-06-07T02:20:03.047Z,14.50
2019-06-07T02:22:32.702Z,14.50
2019-06-07T02:25:37.294Z,14.40
2019-06-07T02:27:33.488Z,14.40
2019-06-07T02:30:35.389Z,14.40
2019-06-07T02:32:36.866Z,14.40
2019-06-07T02:35:06.856Z,14.50
2019-06-07T02:37:37.359Z,14.30
2019-06-07T02:40:07.807Z,14.30
2019-06-07T02:42:42.153Z,14.30
2019-06-07T02:45:10.849Z,14.40
2019-06-07T02:47:40.968Z,14.40
2019-06-07T02:50:10.878Z,14.50
2019-06-07T02:52:41.489Z,14.70
2019-06-07T02:55:12.305Z,14.80
2019-06-07T02:57:43.095Z,14.80
2019-06-07T03:00:51.489Z,14.80
2019-06-07T03:02:45.556Z,14.80
2019-06-07T03:05:15.236Z,14.80
2019-06-07T03:07:47.487Z,14.70
2019-06-07T03:10:17.127Z,14.70
2019-06-07T03:12:49.023Z,14.70
2019-06-07T03:15:32.702Z,14.70
2019-06-07T03:18:10.077Z,14.70
2019-06-07T03:20:40.052Z,14.60
2019-06-07T03:23:09.620Z,14.70
2019-06-07T03:25:41.075Z,14.70
2019-06-07T03:28:10.529Z,14.70
2019-06-07T03:31:00.325Z,14.60
2019-06-07T03:33:11.349Z,14.50
2019-06-07T03:35:40.950Z,14.50
2019-06-07T03:38:10.425Z,14.60
2019-06-07T03:40:40.288Z,14.60
2019-06-07T03:43:09.884Z,14.60
2019-06-07T03:45:41.472Z,14.70
2019-06-07T03:48:10.537Z,14.90
2019-06-07T03:50:42.440Z,14.80
2019-06-07T03:53:11.903Z,14.70
2019-06-07T03:55:41.558Z,14.70
2019-06-07T03:58:31.564Z,14.70
2019-06-07T04:00:43.431Z,14.80
2019-06-07T04:03:32.398Z,14.90
2019-06-07T04:05:44.349Z,14.90
2019-06-07T04:08:13.892Z,14.90
2019-06-07T04:10:58.475Z,15.00
2019-06-07T04:13:14.733Z,15.00
2019-06-07T04:15:44.192Z,15.00
2019-06-07T04:18:13.727Z,15.00
2019-06-07T04:20:43.260Z,15.00
2019-06-07T04:23:27.768Z,15.00
2019-06-07T04:25:44.208Z,15.00
2019-06-07T04:28:13.727Z,15.00
2019-06-07T04:30:43.681Z,15.10
2019-06-07T04:33:13.672Z,15.10
2019-06-07T04:35:45.281Z,15.20
2019-06-07T04:38:15.930Z,15.30
2019-06-07T04:40:47.112Z,15.30
2019-06-07T04:43:16.872Z,15.30
2019-06-07T04:45:51.073Z,15.30
2019-06-07T04:48:21.617Z,15.40
2019-06-07T04:50:53.376Z,15.40
2019-06-07T04:53:22.993Z,15.50
2019-06-07T04:55:52.484Z,15.40
2019-06-07T04:58:22.014Z,15.40
2019-06-07T05:00:56.383Z,15.40
2019-06-07T05:03:22.829Z,15.40
2019-06-07T05:05:52.332Z,15.40
2019-06-07T05:08:28.176Z,15.40
2019-06-07T05:10:53.122Z,15.40
2019-06-07T05:13:22.792Z,15.40
2019-06-07T05:15:52.321Z,15.40
2019-06-07T05:18:22.226Z,15.40
2019-06-07T05:20:51.803Z,15.40
2019-06-07T05:24:00.182Z,15.40
2019-06-07T05:25:52.573Z,15.40
2019-06-07T05:28:22.308Z,15.50
2019-06-07T05:31:03.399Z,15.60
2019-06-07T05:33:23.100Z,15.60
2019-06-07T05:35:52.625Z,15.60
2019-06-07T05:38:22.149Z,15.70
2019-06-07T05:40:51.757Z,15.60
2019-06-07T05:43:26.027Z,15.60
2019-06-07T05:45:55.665Z,15.60
2019-06-07T05:48:25.147Z,15.60
2019-06-07T05:50:57.325Z,15.60
2019-06-07T05:53:26.005Z,15.70
2019-06-07T05:55:55.517Z,15.80
2019-06-07T05:58:24.993Z,15.80
2019-06-07T06:00:54.873Z,15.80
2019-06-07T06:03:24.463Z,15.90
2019-06-07T06:05:55.504Z,16.00
2019-06-07T06:08:25.756Z,16.00
2019-06-07T06:10:55.344Z,16.00
2019-06-07T06:13:24.964Z,16.10
2019-06-07T06:16:01.771Z,16.10
2019-06-07T06:18:26.040Z,16.20
2019-06-07T06:21:15.691Z,16.30
2019-06-07T06:23:26.791Z,16.30
2019-06-07T06:25:57.945Z,16.30
2019-06-07T06:28:27.521Z,16.30
2019-06-07T06:30:57.009Z,16.30
2019-06-07T06:33:34.482Z,16.30
2019-06-07T06:35:57.751Z,16.20
2019-06-07T06:38:27.299Z,16.20
2019-06-07T06:41:14.378Z,16.20
2019-06-07T06:43:28.085Z,16.20
2019-06-07T06:45:57.585Z,16.20
2019-06-07T06:48:27.112Z,16.20
2019-06-07T06:50:56.588Z,16.20
2019-06-07T06:53:26.179Z,16.20
2019-06-07T06:55:55.684Z,16.30
2019-06-07T06:58:25.192Z,16.20
2019-06-07T07:01:05.718Z,16.10
2019-06-07T07:04:00.201Z,16.20
2019-06-07T07:06:24.235Z,16.20
2019-06-07T07:08:29.755Z,16.20
2019-06-07T07:10:59.665Z,16.30
2019-06-07T07:13:29.345Z,16.30
2019-06-07T07:15:58.863Z,16.30
2019-06-07T07:18:28.387Z,16.20
2019-06-07T07:20:57.927Z,16.10
2019-06-07T07:23:27.474Z,16.10
2019-06-07T07:25:59.313Z,16.20
2019-06-07T07:28:28.201Z,16.20
2019-06-07T07:30:57.771Z,16.20
2019-06-07T07:34:19.776Z,16.20
2019-06-07T07:38:29.898Z,16.10
2019-06-07T07:41:18.450Z,16.20
2019-06-07T07:43:54.506Z,16.20
2019-06-07T07:46:29.052Z,16.20
2019-06-07T07:48:52.971Z,16.30
2019-06-07T07:51:22.060Z,16.40
2019-06-07T07:54:04.275Z,16.50
2019-06-07T07:56:23.181Z,16.40
2019-06-07T07:58:56.213Z,16.50
2019-06-07T08:01:24.277Z,16.50
2019-06-07T08:03:54.958Z,16.60
2019-06-07T08:06:24.976Z,16.50
2019-06-07T08:08:56.951Z,16.60
2019-06-07T08:11:25.718Z,16.70
2019-06-07T08:13:57.635Z,16.70
2019-06-07T08:16:27.070Z,16.80
2019-06-07T08:19:02.301Z,16.90
2019-06-07T08:21:27.771Z,16.90
2019-06-07T08:24:00.577Z,16.90
2019-06-07T08:26:28.453Z,16.90
2019-06-07T08:29:01.963Z,17.00
2019-06-07T08:31:29.708Z,17.10
2019-06-07T08:34:00.795Z,17.20
2019-06-07T08:36:41.504Z,17.30
2019-06-07T08:39:07.273Z,17.30
2019-06-07T08:41:32.867Z,17.40
2019-06-07T08:44:22.419Z,17.40
2019-06-07T08:46:33.589Z,17.50
2019-06-07T08:49:04.752Z,17.50
2019-06-07T08:51:34.584Z,17.50
2019-06-07T08:54:21.586Z,17.50
2019-06-07T08:56:35.574Z,17.40
2019-06-07T08:59:11.207Z,17.40
2019-06-07T09:01:36.428Z,17.40
2019-06-07T09:04:10.588Z,17.40
2019-06-07T09:09:08.705Z,17.40
2019-06-07T09:11:38.192Z,17.40
2019-06-07T09:14:09.305Z,17.50
2019-06-07T09:16:39.048Z,17.50
2019-06-07T09:19:10.901Z,17.50
2019-06-07T09:21:39.761Z,17.50
2019-06-07T09:24:11.581Z,17.50
2019-06-07T09:26:40.806Z,17.50
2019-06-07T09:29:11.941Z,17.50
2019-06-07T09:31:52.481Z,17.60
2019-06-07T09:34:15.340Z,17.60
2019-06-07T09:36:44.687Z,17.60
2019-06-07T09:39:14.362Z,17.60
2019-06-07T09:41:49.540Z,17.60
2019-06-07T09:44:24.609Z,17.50
2019-06-07T09:46:46.244Z,17.50
2019-06-07T09:49:28.886Z,17.60
2019-06-07T09:51:46.987Z,17.60
2019-06-07T09:55:02.519Z,17.70
2019-06-07T09:56:48.581Z,17.70
2019-06-07T09:59:18.495Z,17.80
2019-06-07T10:01:49.577Z,17.80
2019-06-07T10:04:30.874Z,17.70
2019-06-07T10:06:50.476Z,17.60
2019-06-07T10:10:09.400Z,17.70
2019-06-07T10:11:51.256Z,17.70
2019-06-07T10:14:21.119Z,17.80
2019-06-07T10:16:51.011Z,17.90
2019-06-07T10:19:39.917Z,17.90
2019-06-07T10:22:09.763Z,17.90
2019-06-07T10:24:39.324Z,17.90
2019-06-07T10:27:09.945Z,17.90
2019-06-07T10:29:47.215Z,17.90
2019-06-07T10:32:16.834Z,18.10
2019-06-07T10:34:46.616Z,18.10
2019-06-07T10:37:16.195Z,18.10
2019-06-07T10:39:49.025Z,18.20
2019-06-07T10:42:16.916Z,18.30
2019-06-07T10:44:46.768Z,18.30
2019-06-07T10:47:16.332Z,18.50
2019-06-07T10:49:45.903Z,18.60
2019-06-07T10:52:15.421Z,18.80
2019-06-07T10:54:45.136Z,18.90
2019-06-07T10:57:16.199Z,18.90
2019-06-07T10:59:46.324Z,18.90
2019-06-07T11:02:15.861Z,19.00
2019-06-07T11:04:45.347Z,19.10
2019-06-07T11:07:15.271Z,19.30
2019-06-07T11:09:44.815Z,19.50
2019-06-07T11:12:15.355Z,19.50
2019-06-07T11:14:44.945Z,19.50
2019-06-07T11:17:15.689Z,19.40
2019-06-07T11:19:45.609Z,19.50
2019-06-07T11:22:15.469Z,19.80
2019-06-07T11:24:44.985Z,19.90
2019-06-07T11:27:16.297Z,20.10
2019-06-07T11:29:45.796Z,20.30
2019-06-07T11:32:15.360Z,20.20
2019-06-07T11:34:44.838Z,20.10
2019-06-07T11:37:16.176Z,20.00
2019-06-07T11:39:45.608Z,19.90
2019-06-07T11:42:15.213Z,19.90
2019-06-07T11:44:56.445Z,20.00
2019-06-07T11:47:15.957Z,20.00
2019-06-07T11:49:45.777Z,20.20
2019-06-07T11:52:15.752Z,20.10
2019-06-07T11:54:48.111Z,20.20
2019-06-07T11:57:18.096Z,20.30
2019-06-07T11:59:47.690Z,20.40
2019-06-07T12:02:17.597Z,20.50
2019-06-07T12:04:47.279Z,20.70
2019-06-07T12:07:17.664Z,20.90
2019-06-07T12:09:56.482Z,20.90
2019-06-07T12:12:20.493Z,20.80
2019-06-07T12:14:50.303Z,20.60
2019-06-07T12:17:19.930Z,20.50
2019-06-07T12:19:49.521Z,20.60
2019-06-07T12:22:20.085Z,20.70
2019-06-07T12:24:49.762Z,20.90
2019-06-07T12:27:20.720Z,21.00
2019-06-07T12:29:50.451Z,21.00
2019-06-07T12:32:21.177Z,21.10
2019-06-07T12:34:51.075Z,21.30
2019-06-07T12:37:25.295Z,21.40
2019-06-07T12:39:54.562Z,21.50
2019-06-07T12:42:24.497Z,21.60
2019-06-07T12:44:54.411Z,21.60
2019-06-07T12:47:23.955Z,21.70
2019-06-07T12:49:53.621Z,21.70
2019-06-07T12:52:24.589Z,21.80
2019-06-07T12:54:54.611Z,21.80
2019-06-07T12:57:24.483Z,21.90
2019-06-07T12:59:54.095Z,21.90
2019-06-07T13:02:25.444Z,22.00
2019-06-07T13:04:55.315Z,22.20
2019-06-07T13:07:25.174Z,22.10
2019-06-07T13:09:55.516Z,22.00
2019-06-07T13:12:25.816Z,21.90
2019-06-07T13:14:55.290Z,21.80
2019-06-07T13:17:25.125Z,21.70
2019-06-07T13:19:54.770Z,21.60
2019-06-07T13:22:24.677Z,21.70
2019-06-07T13:24:54.242Z,21.70
2019-06-07T13:27:24.516Z,21.80
2019-06-07T13:29:54.283Z,21.90
2019-06-07T13:32:24.270Z,21.90
2019-06-07T13:34:54.091Z,22.00
2019-06-07T13:37:23.718Z,22.10
2019-06-07T13:43:34.349Z,22.00
2019-06-07T13:46:03.789Z,21.90
2019-06-07T13:48:33.380Z,21.90
2019-06-07T13:51:02.962Z,22.10
2019-06-07T13:53:32.568Z,22.10
2019-06-07T13:56:02.077Z,22.20
2019-06-07T13:58:31.623Z,22.20
2019-06-07T14:01:01.182Z,22.10
2019-06-07T14:03:33.532Z,22.20
2019-06-07T14:06:02.160Z,22.20
2019-06-07T14:08:32.420Z,22.20
2019-06-07T14:11:02.020Z,22.20
2019-06-07T14:13:31.945Z,22.20
2019-06-07T14:16:03.024Z,22.20
2019-06-07T14:18:32.677Z,22.20
2019-06-07T14:21:02.612Z,22.20
2019-06-07T14:23:46.872Z,22.20
2019-06-07T14:26:03.378Z,22.20
2019-06-07T14:28:34.309Z,22.20
2019-06-07T14:31:05.702Z,22.20
2019-06-07T14:33:35.728Z,22.20
2019-06-07T14:36:06.448Z,22.10
2019-06-07T14:38:55.315Z,22.10
2019-06-07T14:41:25.173Z,22.10
2019-06-07T14:43:54.862Z,22.10
2019-06-07T14:46:25.334Z,22.20
2019-06-07T14:48:55.528Z,22.20
2019-06-07T14:51:26.217Z,22.10
2019-06-07T14:53:56.764Z,22.10
2019-06-07T14:56:27.017Z,22.20
2019-06-07T14:58:57.143Z,22.30
2019-06-07T15:01:30.722Z,22.30
2019-06-07T15:04:01.350Z,22.30
2019-06-07T15:06:30.902Z,22.40
2019-06-07T15:09:00.502Z,22.50
2019-06-07T15:11:31.171Z,22.50
2019-06-07T15:14:00.782Z,22.50
2019-06-07T15:16:31.907Z,22.50
2019-06-07T15:19:01.757Z,22.40
2019-06-07T15:21:32.832Z,22.50
2019-06-07T15:24:03.456Z,22.50
2019-06-07T15:26:34.468Z,22.40
2019-06-07T15:29:04.520Z,22.50
2019-06-07T15:31:34.659Z,22.40
2019-06-07T15:34:05.686Z,22.40
2019-06-07T15:36:36.386Z,22.40
2019-06-07T15:39:07.836Z,22.40
2019-06-07T15:41:39.510Z,22.50
2019-06-07T15:44:08.953Z,22.50
2019-06-07T15:46:39.849Z,22.60
2019-06-07T15:49:09.801Z,22.60
2019-06-07T15:51:40.849Z,22.60
2019-06-07T15:54:10.719Z,22.60
2019-06-07T15:56:41.339Z,22.60
2019-06-07T15:59:11.498Z,22.50
2019-06-07T16:01:42.066Z,22.50
2019-06-07T16:04:11.899Z,22.40
2019-06-07T16:06:43.578Z,22.40
2019-06-07T16:09:12.758Z,22.40
2019-06-07T16:11:43.656Z,22.40
2019-06-07T16:14:14.313Z,22.40
2019-06-07T16:16:43.844Z,22.40
2019-06-07T16:19:13.426Z,22.40
2019-06-07T16:21:43.636Z,22.50
2019-06-07T16:24:13.377Z,22.50
2019-06-07T16:26:44.420Z,22.50
2019-06-07T16:29:14.243Z,22.50
2019-06-07T16:31:45.129Z,22.40
2019-06-07T16:34:15.133Z,22.50
2019-06-07T16:36:46.805Z,22.50
2019-06-07T16:39:16.279Z,22.50
2019-06-07T16:41:45.901Z,22.50
2019-06-07T16:44:15.411Z,22.50
2019-06-07T16:46:45.179Z,22.50
2019-06-07T16:49:14.720Z,22.40
2019-06-07T16:51:45.366Z,22.30
2019-06-07T16:54:15.022Z,22.30
2019-06-07T16:56:48.106Z,22.30
2019-06-07T16:59:16.639Z,22.30
2019-06-07T17:01:46.654Z,22.30
2019-06-07T17:04:16.890Z,22.30
2019-06-07T17:06:46.922Z,22.30
2019-06-07T17:09:17.671Z,22.30
2019-06-07T17:11:48.517Z,22.30
2019-06-07T17:14:18.313Z,22.30
2019-06-07T17:16:48.739Z,22.30
2019-06-07T17:19:19.120Z,22.20
2019-06-07T17:21:49.589Z,22.20
2019-06-07T17:24:19.998Z,22.10
2019-06-07T17:26:49.704Z,22.00
2019-06-07T17:29:19.383Z,22.00
2019-06-07T17:31:50.266Z,22.00
2019-06-07T17:34:20.017Z,21.90
2019-06-07T17:36:50.695Z,22.00
2019-06-07T17:39:20.514Z,22.00
2019-06-07T17:42:01.244Z,22.00
2019-06-07T17:44:21.669Z,21.90
2019-06-07T17:46:51.789Z,21.90
2019-06-07T17:49:21.739Z,21.80
2019-06-07T17:51:52.262Z,21.80
2019-06-07T17:54:21.924Z,21.70
2019-06-07T17:56:53.292Z,21.70
2019-06-07T17:59:23.395Z,21.70
2019-06-07T18:02:13.272Z,21.60
2019-06-07T18:04:25.059Z,21.60
2019-06-07T18:06:54.930Z,21.60
2019-06-07T18:09:26.007Z,21.50
2019-06-07T18:11:55.893Z,21.40
2019-06-07T18:14:25.466Z,21.30
2019-06-07T18:16:55.006Z,21.30
2019-06-07T18:19:24.578Z,21.20
2019-06-07T18:21:58.604Z,21.10
2019-06-07T18:24:25.373Z,21.10
2019-06-07T18:26:54.939Z,21.10
2019-06-07T18:29:24.501Z,21.10
2019-06-07T18:31:55.233Z,21.20
2019-06-07T18:34:24.819Z,21.10
2019-06-07T18:36:55.278Z,21.10
2019-06-07T18:39:25.141Z,21.10
2019-06-07T18:41:55.403Z,21.00
2019-06-07T18:44:25.013Z,20.90
2019-06-07T18:46:54.684Z,20.90
2019-06-07T18:49:24.608Z,20.90
2019-06-07T18:52:12.653Z,20.90
2019-06-07T18:54:42.212Z,20.80
2019-06-07T18:57:12.544Z,20.70
2019-06-07T18:59:43.387Z,20.70
2019-06-07T19:02:12.976Z,20.60
2019-06-07T19:04:42.484Z,20.60
2019-06-07T19:07:12.069Z,20.60
2019-06-07T19:09:44.207Z,20.60
2019-06-07T19:12:13.806Z,20.60
2019-06-07T19:14:43.373Z,20.50
2019-06-07T19:17:13.077Z,20.50
2019-06-07T19:19:43.296Z,20.50
2019-06-07T19:22:13.244Z,20.50
2019-06-07T19:24:43.094Z,20.40
2019-06-07T19:27:13.594Z,20.40
2019-06-07T19:29:43.523Z,20.10
2019-06-07T19:32:13.425Z,20.10
2019-06-07T19:34:43.352Z,20.10
2019-06-07T19:37:12.907Z,20.00
2019-06-07T19:39:43.306Z,19.90
2019-06-07T19:42:13.421Z,19.90
2019-06-07T19:44:53.199Z,19.80
2019-06-07T19:47:14.930Z,19.60
2019-06-07T19:49:44.911Z,19.60
2019-06-07T19:52:14.563Z,19.50
2019-06-07T19:54:44.502Z,19.50
2019-06-07T19:57:14.493Z,19.50
2019-06-07T19:59:44.023Z,19.40
2019-06-07T20:02:13.623Z,19.30
2019-06-07T20:04:43.200Z,19.30
2019-06-07T20:07:12.747Z,19.30
2019-06-07T20:09:42.284Z,19.30
2019-06-07T20:12:11.888Z,19.20
2019-06-07T20:14:41.834Z,19.10
2019-06-07T20:17:11.374Z,19.10
2019-06-07T20:19:40.891Z,19.10
2019-06-07T20:22:10.573Z,19.10
2019-06-07T20:24:40.184Z,19.10
2019-06-07T20:27:09.985Z,19.00
2019-06-07T20:29:39.733Z,19.00
2019-06-07T20:32:09.317Z,18.90
2019-06-07T20:34:38.918Z,18.90
2019-06-07T20:37:09.179Z,18.80
2019-06-07T20:39:39.283Z,18.70
2019-06-07T20:42:08.849Z,18.70
2019-06-07T20:44:41.664Z,18.70
2019-06-07T20:47:11.237Z,18.70
2019-06-07T20:49:40.779Z,18.60
2019-06-07T20:52:10.420Z,18.60
2019-06-07T20:54:40.335Z,18.50
2019-06-07T20:57:09.887Z,18.40
2019-06-07T20:59:39.392Z,18.40
2019-06-07T21:02:09.733Z,18.40
2019-06-07T21:04:39.372Z,18.40
2019-06-07T21:07:10.138Z,18.30
2019-06-07T21:09:40.261Z,18.30
2019-06-07T21:12:10.014Z,18.30
2019-06-07T21:14:40.662Z,18.30
2019-06-07T21:17:10.385Z,18.30
2019-06-07T21:19:39.964Z,18.20
2019-06-07T21:22:10.848Z,18.20
2019-06-07T21:24:41.284Z,18.30
2019-06-07T21:27:11.407Z,18.20
2019-06-07T21:29:41.139Z,18.20
2019-06-07T21:32:11.797Z,18.20
2019-06-07T21:34:41.359Z,18.30
2019-06-07T21:37:12.158Z,18.20
2019-06-07T21:39:42.117Z,18.10
2019-06-07T21:42:12.384Z,18.20
2019-06-07T21:44:42.095Z,18.20
2019-06-07T21:47:12.751Z,18.20
2019-06-07T21:49:42.723Z,18.20
2019-06-07T21:52:12.915Z,18.10
2019-06-07T21:54:42.532Z,18.10
2019-06-07T21:57:13.140Z,18.10
2019-06-07T21:59:42.823Z,18.10
2019-06-07T22:02:13.620Z,18.20
2019-06-07T22:04:43.412Z,18.20
2019-06-07T22:07:13.664Z,18.10
2019-06-07T22:09:43.391Z,18.10
2019-06-07T22:12:14.134Z,18.10
2019-06-07T22:14:43.947Z,18.00
2019-06-07T22:17:14.540Z,17.90
2019-06-07T22:19:44.093Z,17.90
2019-06-07T22:22:14.799Z,17.90
2019-06-07T22:24:44.392Z,17.90
2019-06-07T22:27:13.915Z,17.90
2019-06-07T22:29:43.412Z,17.80
2019-06-07T22:32:14.889Z,17.80
2019-06-07T22:34:45.065Z,17.80
2019-06-07T22:37:17.577Z,17.80
2019-06-07T22:39:46.144Z,17.80
2019-06-07T22:42:15.696Z,17.80
2019-06-07T22:44:45.270Z,17.80
2019-06-07T22:47:16.167Z,17.80
2019-06-07T22:49:46.121Z,17.70
2019-06-07T22:52:17.339Z,17.70
2019-06-07T22:54:47.648Z,17.80
2019-06-07T22:57:22.119Z,17.90
2019-06-07T22:59:51.651Z,17.90
2019-06-07T23:02:21.160Z,18.00
2019-06-07T23:04:50.719Z,18.00
2019-06-07T23:07:20.225Z,18.00
2019-06-07T23:09:49.735Z,18.10
2019-06-07T23:12:19.986Z,18.20
2019-06-07T23:14:49.544Z,18.20
2019-06-07T23:17:20.603Z,18.30
2019-06-07T23:19:50.595Z,18.30
2019-06-07T23:22:20.260Z,18.30
2019-06-07T23:24:50.083Z,18.30
2019-06-07T23:27:28.848Z,18.20
2019-06-07T23:29:58.325Z,18.30
2019-06-07T23:32:28.295Z,18.40
2019-06-07T23:34:57.838Z,18.40
2019-06-07T23:37:27.356Z,18.50
2019-06-07T23:39:57.321Z,18.50
2019-06-07T23:42:26.823Z,18.50
2019-06-07T23:44:56.402Z,18.50
2019-06-07T23:47:25.945Z,18.50
2019-06-07T23:49:56.184Z,18.40
2019-06-07T23:52:25.683Z,18.40
2019-06-07T23:54:55.224Z,18.40
2019-06-07T23:57:25.079Z,18.30
2019-06-07T23:59:54.610Z,18.20
